createdAt,value
2023-02-17T00:04:13.674Z,86.71
2023-02-17T00:09:23.343Z,86.92
2023-02-17T00:14:33.187Z,87.12
2023-02-17T00:19:43.585Z,87.23
2023-02-17T00:24:53.120Z,87.39
2023-02-17T00:30:02.951Z,87.36
2023-02-17T00:35:13.195Z,87.49
2023-02-17T00:40:23.247Z,87.50
2023-02-17T00:45:33.094Z,87.46
2023-02-17T00:50:43.081Z,87.46
2023-02-17T00:55:53.078Z,87.49
2023-02-17T01:01:04.032Z,87.40
2023-02-17T01:06:23.788Z,87.43
2023-02-17T01:11:35.880Z,87.46
2023-02-17T01:16:49.207Z,87.67
2023-02-17T01:21:59.107Z,87.71
2023-02-17T01:27:09.062Z,87.91
2023-02-17T01:32:18.932Z,88.14
2023-02-17T01:37:28.583Z,88.14
2023-02-17T01:42:38.243Z,88.19
2023-02-17T01:47:50.781Z,88.35
2023-02-17T01:53:02.212Z,88.41
2023-02-17T01:58:17.313Z,88.50
2023-02-17T02:03:28.943Z,88.53
2023-02-17T02:08:52.913Z,88.56
2023-02-17T02:14:04.704Z,88.64
2023-02-17T02:19:48.069Z,88.62
2023-02-17T02:25:17.730Z,88.71
2023-02-17T02:31:03.511Z,88.79
2023-02-17T02:36:22.415Z,88.99
2023-02-17T02:41:36.479Z,89.07
2023-02-17T02:46:46.485Z,89.08
2023-02-17T02:52:09.384Z,89.18
2023-02-17T02:57:45.294Z,89.14
2023-02-17T03:03:00.817Z,89.25
2023-02-17T03:08:19.240Z,89.15
2023-02-17T03:13:29.122Z,89.22
2023-02-17T03:18:39.492Z,89.32
2023-02-17T03:23:49.512Z,89.32
2023-02-17T03:28:59.119Z,89.35
2023-02-17T03:34:10.055Z,89.37
2023-02-17T03:39:19.882Z,89.33
2023-02-17T03:44:29.542Z,89.46
2023-02-17T03:49:39.014Z,89.43
2023-02-17T03:54:49.137Z,89.36
2023-02-17T03:59:58.882Z,89.32
2023-02-17T04:05:09.593Z,89.24
2023-02-17T04:10:19.689Z,89.19
2023-02-17T04:15:30.132Z,89.18
2023-02-17T04:20:40.026Z,89.18
2023-02-17T04:25:50.576Z,89.21
2023-02-17T04:31:03.007Z,89.13
2023-02-17T04:36:13.731Z,89.14
2023-02-17T04:41:23.440Z,89.15
2023-02-17T04:46:33.131Z,89.10
2023-02-17T04:51:42.768Z,89.11
2023-02-17T04:56:52.554Z,89.06
2023-02-17T05:02:02.303Z,89.03
2023-02-17T05:07:12.102Z,89.06
2023-02-17T05:12:21.689Z,89.11
2023-02-17T05:17:31.728Z,89.13
2023-02-17T05:22:41.447Z,89.14
2023-02-17T05:27:50.939Z,89.17
2023-02-17T05:33:01.332Z,89.20
2023-02-17T05:38:10.895Z,89.23
2023-02-17T05:43:20.431Z,89.32
2023-02-17T05:48:30.285Z,89.34
2023-02-17T05:53:39.922Z,89.32
2023-02-17T05:58:49.629Z,89.39
2023-02-17T06:03:59.194Z,89.44
2023-02-17T06:09:09.032Z,89.42
2023-02-17T06:14:18.909Z,89.39
2023-02-17T06:19:29.080Z,89.42
2023-02-17T06:24:38.695Z,89.43
2023-02-17T06:29:48.496Z,89.47
2023-02-17T06:34:58.312Z,89.44
2023-02-17T06:40:09.402Z,89.43
2023-02-17T06:45:19.402Z,89.40
2023-02-17T06:50:29.438Z,89.45
2023-02-17T06:55:39.914Z,89.44
2023-02-17T07:00:49.786Z,89.40
2023-02-17T07:06:04.011Z,89.46
2023-02-17T07:11:15.888Z,89.59
2023-02-17T07:16:25.691Z,89.50
2023-02-17T07:21:35.321Z,89.43
2023-02-17T07:26:45.629Z,89.44
2023-02-17T07:31:55.351Z,89.42
2023-02-17T07:37:05.258Z,89.44
2023-02-17T07:42:15.112Z,89.65
2023-02-17T07:47:24.923Z,89.60
2023-02-17T07:52:34.652Z,89.71
2023-02-17T07:57:44.527Z,89.68
2023-02-17T08:02:54.248Z,89.70
2023-02-17T08:08:21.426Z,89.60
2023-02-17T08:13:32.148Z,89.54
2023-02-17T08:18:42.127Z,89.54
2023-02-17T08:23:51.882Z,89.46
2023-02-17T08:29:01.881Z,89.39
2023-02-17T08:34:13.810Z,89.36
2023-02-17T08:39:24.448Z,89.31
2023-02-17T08:44:36.136Z,89.20
2023-02-17T08:49:46.002Z,89.14
2023-02-17T08:54:59.822Z,89.11
2023-02-17T09:00:16.434Z,89.10
2023-02-17T09:05:27.132Z,89.03
2023-02-17T09:10:36.890Z,88.99
2023-02-17T09:15:47.047Z,88.90
2023-02-17T09:20:58.786Z,88.79
2023-02-17T09:26:11.468Z,88.81
2023-02-17T09:31:24.989Z,88.70
2023-02-17T09:36:42.570Z,88.60
2023-02-17T09:41:55.590Z,88.51
2023-02-17T09:47:12.854Z,88.51
2023-02-17T09:52:35.099Z,88.56
2023-02-17T09:57:55.242Z,88.18
2023-02-17T10:03:15.909Z,88.19
2023-02-17T10:08:33.944Z,88.19
2023-02-17T10:13:48.046Z,88.25
2023-02-17T10:19:08.148Z,88.32
2023-02-17T10:24:18.023Z,88.60
2023-02-17T10:29:51.661Z,88.65
2023-02-17T10:35:17.468Z,88.66
2023-02-17T10:40:29.578Z,88.68
2023-02-17T10:45:43.481Z,88.75
2023-02-17T10:50:54.976Z,88.87
2023-02-17T10:56:14.736Z,88.92
2023-02-17T11:01:24.796Z,89.11
2023-02-17T11:06:39.269Z,89.16
2023-02-17T11:12:02.786Z,89.15
2023-02-17T11:17:27.704Z,89.06
2023-02-17T11:22:44.811Z,88.90
2023-02-17T11:27:59.366Z,88.82
2023-02-17T11:33:22.891Z,88.79
2023-02-17T11:38:43.798Z,88.81
2023-02-17T11:44:01.785Z,88.83
2023-02-17T11:50:03.388Z,88.78
2023-02-17T11:55:26.069Z,88.71
2023-02-17T12:00:52.728Z,88.78
2023-02-17T12:06:19.855Z,88.83
2023-02-17T12:11:38.988Z,89.01
2023-02-17T12:17:04.198Z,89.08
2023-02-17T12:22:24.415Z,89.08
2023-02-17T12:27:51.370Z,89.29
2023-02-17T12:33:36.573Z,89.47
2023-02-17T12:38:54.854Z,89.46
2023-02-17T12:44:14.219Z,89.43
2023-02-17T12:49:31.331Z,89.41
2023-02-17T12:54:48.187Z,89.66
2023-02-17T13:00:00.431Z,89.71
2023-02-17T13:05:23.728Z,89.71
2023-02-17T13:10:42.066Z,89.79
2023-02-17T13:16:02.989Z,89.78
2023-02-17T13:21:34.150Z,89.85
2023-02-17T13:26:45.834Z,89.88
2023-02-17T13:31:59.145Z,89.86
2023-02-17T13:37:39.518Z,89.96
2023-02-17T13:42:51.241Z,90.08
2023-02-17T13:48:12.699Z,90.14
2023-02-17T13:53:37.833Z,90.18
2023-02-17T13:58:47.814Z,90.29
2023-02-17T14:04:00.378Z,90.29
2023-02-17T14:09:24.208Z,90.32
2023-02-17T14:14:38.846Z,90.28
2023-02-17T14:19:51.939Z,90.26
2023-02-17T14:25:08.654Z,90.14
2023-02-17T14:30:33.739Z,90.18
2023-02-17T14:35:53.371Z,90.18
2023-02-17T14:41:03.369Z,90.18
2023-02-17T14:46:14.764Z,90.26
2023-02-17T14:51:26.973Z,90.25
2023-02-17T14:56:42.313Z,90.21
2023-02-17T15:01:52.348Z,90.26
2023-02-17T15:07:02.311Z,90.29
2023-02-17T15:12:19.408Z,90.22
2023-02-17T15:17:29.223Z,90.29
2023-02-17T15:22:42.594Z,90.35
2023-02-17T15:27:52.642Z,90.39
2023-02-17T15:33:02.889Z,90.36
2023-02-17T15:38:16.686Z,90.43
2023-02-17T15:48:52.461Z,90.64
2023-02-17T15:54:02.313Z,90.57
2023-02-17T15:59:19.865Z,90.51
2023-02-17T16:04:30.446Z,90.61
2023-02-17T16:09:40.718Z,90.61
2023-02-17T16:14:50.733Z,90.68
2023-02-17T16:20:00.569Z,90.76
2023-02-17T16:25:12.628Z,90.92
2023-02-17T16:30:26.434Z,90.92
2023-02-17T16:35:37.353Z,90.99
2023-02-17T16:40:52.039Z,90.99
2023-02-17T16:46:06.730Z,91.02
2023-02-17T16:51:16.661Z,91.13
2023-02-17T16:56:36.238Z,91.28
2023-02-17T17:01:46.622Z,91.27
2023-02-17T17:06:57.296Z,91.22
2023-02-17T17:12:07.811Z,91.25
2023-02-17T17:17:17.701Z,91.21
2023-02-17T17:22:27.658Z,91.25
2023-02-17T17:27:38.172Z,91.33
2023-02-17T17:32:48.341Z,91.53
2023-02-17T17:37:59.006Z,91.36
2023-02-17T17:43:09.087Z,91.52
2023-02-17T17:48:20.896Z,91.54
2023-02-17T17:53:30.712Z,91.65
2023-02-17T17:58:40.555Z,91.52
2023-02-17T18:03:51.623Z,91.85
2023-02-17T18:09:07.446Z,91.96
2023-02-17T18:14:19.363Z,92.06
2023-02-17T18:19:30.854Z,92.04
2023-02-17T18:24:41.504Z,91.94
2023-02-17T18:29:51.515Z,92.13
2023-02-17T18:35:01.567Z,92.23
2023-02-17T18:40:15.757Z,92.11
2023-02-17T18:45:26.454Z,92.09
2023-02-17T18:50:37.174Z,92.33
2023-02-17T18:55:47.058Z,92.18
2023-02-17T19:00:56.843Z,92.05
2023-02-17T19:06:16.201Z,92.04
2023-02-17T19:11:27.562Z,91.98
2023-02-17T19:16:39.086Z,91.89
2023-02-17T19:21:48.788Z,91.80
2023-02-17T19:26:58.511Z,91.93
2023-02-17T19:32:09.621Z,91.90
2023-02-17T19:37:19.522Z,92.04
2023-02-17T19:42:29.440Z,92.02
2023-02-17T19:47:39.036Z,92.01
2023-02-17T19:52:49.370Z,91.96
2023-02-17T19:57:59.154Z,91.86
2023-02-17T20:03:09.405Z,91.50
2023-02-17T20:08:19.450Z,90.96
2023-02-17T20:13:34.722Z,90.46
2023-02-17T20:18:52.470Z,90.58
2023-02-17T20:24:03.176Z,90.63
2023-02-17T20:29:14.008Z,90.55
2023-02-17T20:34:33.423Z,90.46
2023-02-17T20:39:43.463Z,90.24
2023-02-17T20:44:54.768Z,88.94
2023-02-17T20:50:09.500Z,88.43
2023-02-17T20:55:19.996Z,86.54
2023-02-17T21:00:31.786Z,86.68
2023-02-17T21:05:41.803Z,85.43
2023-02-17T21:10:52.053Z,82.26
2023-02-17T21:16:02.034Z,81.43
2023-02-17T21:21:12.377Z,81.75
2023-02-17T21:26:22.341Z,81.10
2023-02-17T21:31:32.831Z,82.27
2023-02-17T21:36:42.843Z,82.71
2023-02-17T21:41:54.301Z,81.09
2023-02-17T21:47:04.244Z,80.53
2023-02-17T21:52:14.055Z,80.59
2023-02-17T21:57:23.974Z,80.61
2023-02-17T22:02:34.204Z,80.06
2023-02-17T22:07:43.999Z,79.21
2023-02-17T22:12:53.803Z,78.13
2023-02-17T22:18:04.248Z,77.68
2023-02-17T22:23:14.149Z,77.62
2023-02-17T22:28:23.853Z,76.89
2023-02-17T22:33:34.100Z,76.40
2023-02-17T22:38:44.000Z,75.92
2023-02-17T22:43:55.519Z,75.33
2023-02-17T22:49:05.558Z,74.68
2023-02-17T22:54:15.412Z,74.32
2023-02-17T22:59:25.151Z,74.50
2023-02-17T23:04:34.887Z,74.58
2023-02-17T23:09:44.715Z,75.67
2023-02-17T23:14:54.606Z,75.93
2023-02-17T23:20:04.849Z,76.65
2023-02-17T23:25:16.784Z,77.42
2023-02-17T23:30:28.248Z,77.76
2023-02-17T23:35:45.151Z,78.39
2023-02-17T23:40:56.524Z,78.32
2023-02-17T23:46:07.820Z,78.24
2023-02-17T23:51:21.391Z,78.53
2023-02-17T23:56:34.696Z,78.47
